^^
Station Historical Data
 
Daily Summary for January 20, 2019 Units:  English    Metric   Both
« Previous Day
Next Day »
Daily Weekly Monthly Yearly Custom
  Current: High: Low: Average:
Temperature: 48.7 °F 50.0 °F 36.9 °F 42.1 °F
Dew Point: 27.2 °F 35.8 °F 26.7 °F 32.3 °F
Humidity: 43% 84% 42% 70%
Wind Speed: 11.0mph 21.0mph 0.0mph 1.7mph
Wind Gust: 14.0mph 24.0mph - -
WindEast - - SE
Pressure: 29.72 in 30.29 in 29.72 in -
Precipitation: 0.00 in      
Historical Graphs
 
 
Tabular Data for January 20, 2019
Time Temperature Dew Point Pressure Wind Wind Speed Wind Gust Humidity Rainfall Rate (Hourly) solar Conditions
00:04 42.3 °F 35.0 °F 30.29 in ESE 2.0 mph 4.0 mph 75% 0.00 in 0.00 W/m2
00:09 42.4 °F 35.0 °F 30.28 in Calm   4.0 mph 75% 0.00 in 0.00 W/m2
00:15 42.3 °F 35.3 °F 30.28 in Calm   4.0 mph 76% 0.00 in 0.00 W/m2
00:19 41.9 °F 34.6 °F 30.28 in Calm   5.0 mph 75% 0.00 in 0.00 W/m2
00:24 41.4 °F 34.1 °F 30.28 in Calm   5.0 mph 75% 0.00 in 0.00 W/m2
00:29 40.7 °F 33.7 °F 30.29 in Calm     76% 0.00 in 0.00 W/m2
00:34 40.1 °F 33.5 °F 30.29 in Calm     77% 0.00 in 0.00 W/m2
00:39 39.7 °F 33.4 °F 30.28 in Calm     78% 0.00 in 0.00 W/m2
00:44 39.5 °F 33.5 °F 30.28 in Calm   2.0 mph 79% 0.00 in 0.00 W/m2
00:49 39.3 °F 33.7 °F 30.27 in Calm     80% 0.00 in 0.00 W/m2
00:55 40.1 °F 34.8 °F 30.26 in Calm   8.0 mph 81% 0.00 in 0.00 W/m2
00:59 41.5 °F 35.8 °F 30.26 in South 7.0 mph 8.0 mph 80% 0.00 in 0.00 W/m2
01:05 43.1 °F 35.7 °F 30.26 in Calm   8.0 mph 75% 0.00 in 0.00 W/m2
01:09 43.1 °F 35.0 °F 30.25 in NW 3.0 mph 4.0 mph 73% 0.00 in 0.00 W/m2
01:14 42.7 °F 34.7 °F 30.26 in Calm   4.0 mph 73% 0.00 in 0.00 W/m2
01:19 42.4 °F 34.4 °F 30.26 in Calm     73% 0.00 in 0.00 W/m2
01:24 42.1 °F 34.1 °F 30.26 in Calm     73% 0.00 in 0.00 W/m2
01:29 41.4 °F 33.4 °F 30.26 in Calm     73% 0.00 in 0.00 W/m2
01:34 40.5 °F 33.2 °F 30.26 in Calm     75% 0.00 in 0.00 W/m2
01:40 39.6 °F 33.0 °F 30.25 in Calm     77% 0.00 in 0.00 W/m2
01:45 39.1 °F 32.8 °F 30.25 in Calm   3.0 mph 78% 0.00 in 0.00 W/m2
01:50 38.7 °F 32.8 °F 30.25 in Calm     79% 0.00 in 0.00 W/m2
01:55 38.6 °F 32.7 °F 30.25 in Calm     79% 0.00 in 0.00 W/m2
02:00 38.8 °F 33.2 °F 30.25 in Calm     80% 0.00 in 0.00 W/m2
02:04 38.9 °F 33.3 °F 30.25 in Calm     80% 0.00 in 0.00 W/m2
02:09 39.0 °F 33.4 °F 30.25 in Calm     80% 0.00 in 0.00 W/m2
02:14 38.9 °F 33.3 °F 30.25 in Calm     80% 0.00 in 0.00 W/m2
02:19 38.7 °F 33.1 °F 30.24 in Calm     80% 0.00 in 0.00 W/m2
02:24 38.6 °F 33.0 °F 30.24 in Calm     80% 0.00 in 0.00 W/m2
02:29 38.5 °F 32.9 °F 30.24 in Calm     80% 0.00 in 0.00 W/m2
02:35 38.2 °F 32.6 °F 30.24 in Calm     80% 0.00 in 0.00 W/m2
02:40 37.9 °F 32.3 °F 30.24 in Calm     80% 0.00 in 0.00 W/m2
02:45 37.7 °F 32.4 °F 30.24 in Calm     81% 0.00 in 0.00 W/m2
02:49 37.5 °F 32.2 °F 30.23 in Calm     81% 0.00 in 0.00 W/m2
02:55 37.3 °F 32.3 °F 30.23 in Calm     82% 0.00 in 0.00 W/m2
02:59 37.3 °F 32.3 °F 30.22 in Calm     82% 0.00 in 0.00 W/m2
03:04 37.1 °F 32.1 °F 30.22 in Calm     82% 0.00 in 0.00 W/m2
03:09 37.0 °F 32.3 °F 30.23 in Calm     83% 0.00 in 0.00 W/m2
03:14 36.9 °F 32.2 °F 30.23 in Calm     83% 0.00 in 0.00 W/m2
03:19 37.0 °F 32.3 °F 30.23 in Calm     83% 0.00 in 0.00 W/m2
03:24 37.1 °F 32.7 °F 30.23 in Calm     84% 0.00 in 0.00 W/m2
03:29 37.5 °F 33.1 °F 30.22 in Calm   3.0 mph 84% 0.00 in 0.00 W/m2
03:35 38.0 °F 33.3 °F 30.22 in Calm     83% 0.00 in 0.00 W/m2
03:39 38.1 °F 33.4 °F 30.22 in Calm     83% 0.00 in 0.00 W/m2
03:45 38.4 °F 33.4 °F 30.21 in Calm     82% 0.00 in 0.00 W/m2
03:49 38.4 °F 33.4 °F 30.21 in Calm     82% 0.00 in 0.00 W/m2
03:54 38.5 °F 33.2 °F 30.21 in Calm     81% 0.00 in 0.00 W/m2
03:59 38.4 °F 33.1 °F 30.20 in Calm     81% 0.00 in 0.00 W/m2
04:04 38.4 °F 33.1 °F 30.20 in Calm     81% 0.00 in 0.00 W/m2
04:09 38.6 °F 33.3 °F 30.19 in Calm     81% 0.00 in 0.00 W/m2
04:14 38.7 °F 33.4 °F 30.19 in Calm     81% 0.00 in 0.00 W/m2
04:20 38.8 °F 33.5 °F 30.18 in Calm     81% 0.00 in 0.00 W/m2
04:25 38.9 °F 33.6 °F 30.18 in Calm     81% 0.00 in 0.00 W/m2
04:30 38.9 °F 33.6 °F 30.18 in Calm     81% 0.00 in 0.00 W/m2
04:35 39.0 °F 33.7 °F 30.17 in Calm     81% 0.00 in 0.00 W/m2
04:39 38.9 °F 33.3 °F 30.17 in Calm     80% 0.00 in 0.00 W/m2
04:44 38.8 °F 33.2 °F 30.18 in Calm     80% 0.00 in 0.00 W/m2
04:50 38.6 °F 33.0 °F 30.18 in Calm     80% 0.00 in 0.00 W/m2
04:55 38.5 °F 32.9 °F 30.17 in Calm     80% 0.00 in 0.00 W/m2
04:59 38.5 °F 32.9 °F 30.17 in ESE 1.0 mph 2.0 mph 80% 0.00 in 0.00 W/m2
05:04 38.4 °F 32.5 °F 30.17 in ESE 1.0 mph 4.0 mph 79% 0.00 in 0.00 W/m2
05:09 38.4 °F 32.5 °F 30.17 in Calm   3.0 mph 79% 0.00 in 0.00 W/m2
05:15 38.4 °F 32.5 °F 30.17 in Calm     79% 0.00 in 0.00 W/m2
05:20 38.4 °F 32.5 °F 30.17 in Calm   2.0 mph 79% 0.00 in 0.00 W/m2
05:24 38.5 °F 32.6 °F 30.16 in ESE 3.0 mph 3.0 mph 79% 0.00 in 0.00 W/m2
05:30 38.7 °F 32.8 °F 30.16 in Calm   3.0 mph 79% 0.00 in 0.00 W/m2
05:35 38.7 °F 32.8 °F 30.16 in Calm   1.0 mph 79% 0.00 in 0.00 W/m2
05:40 38.8 °F 32.9 °F 30.16 in Calm     79% 0.00 in 0.00 W/m2
05:44 38.7 °F 32.8 °F 30.16 in Calm     79% 0.00 in 0.00 W/m2
05:49 38.8 °F 32.9 °F 30.16 in Calm     79% 0.00 in 0.00 W/m2
05:55 38.8 °F 32.9 °F 30.16 in Calm     79% 0.00 in 0.00 W/m2
05:59 38.8 °F 32.9 °F 30.16 in Calm     79% 0.00 in 0.00 W/m2
06:04 38.9 °F 33.0 °F 30.16 in Calm     79% 0.00 in 0.00 W/m2
06:09 38.9 °F 33.0 °F 30.16 in Calm   2.0 mph 79% 0.00 in 0.00 W/m2
06:14 38.8 °F 32.9 °F 30.16 in Calm     79% 0.00 in 0.00 W/m2
06:20 38.8 °F 32.9 °F 30.15 in Calm     79% 0.00 in 0.00 W/m2
06:25 38.8 °F 32.9 °F 30.15 in Calm   1.0 mph 79% 0.00 in 0.00 W/m2
06:30 38.7 °F 32.8 °F 30.14 in Calm     79% 0.00 in 0.00 W/m2
06:34 38.9 °F 33.0 °F 30.14 in Calm     79% 0.00 in 0.00 W/m2
06:40 39.1 °F 33.1 °F 30.13 in ESE 1.0 mph 4.0 mph 79% 0.00 in 0.00 W/m2
06:44 39.1 °F 33.1 °F 30.13 in ESE 2.0 mph 2.0 mph 79% 0.00 in 0.00 W/m2
06:50 39.2 °F 33.2 °F 30.13 in Calm   3.0 mph 79% 0.00 in 0.00 W/m2
06:55 39.4 °F 33.4 °F 30.13 in ESE 2.0 mph 2.0 mph 79% 0.00 in 0.00 W/m2
07:00 39.5 °F 33.5 °F 30.13 in Calm   2.0 mph 79% 0.00 in 0.00 W/m2
07:04 39.6 °F 33.6 °F 30.12 in ESE 1.0 mph 3.0 mph 79% 0.00 in 0.00 W/m2
07:10 39.6 °F 33.3 °F 30.12 in Calm     78% 0.00 in 0.00 W/m2
07:15 39.6 °F 33.3 °F 30.13 in Calm     78% 0.00 in 0.00 W/m2
07:19 39.6 °F 33.3 °F 30.12 in Calm     78% 0.00 in 0.00 W/m2
07:25 39.5 °F 32.9 °F 30.12 in Calm   2.0 mph 77% 0.00 in 0.00 W/m2
07:29 39.4 °F 32.8 °F 30.12 in Calm   2.0 mph 77% 0.00 in 0.00 W/m2
07:34 39.4 °F 32.8 °F 30.12 in Calm     77% 0.00 in 0.00 W/m2
07:40 39.4 °F 32.8 °F 30.12 in Calm     77% 0.00 in 0.00 W/m2
07:45 39.4 °F 32.8 °F 30.12 in Calm     77% 0.00 in 0.00 W/m2
07:49 39.4 °F 32.8 °F 30.12 in Calm   1.0 mph 77% 0.00 in 0.00 W/m2
07:54 39.3 °F 32.7 °F 30.11 in ESE 1.0 mph 3.0 mph 77% 0.00 in 0.00 W/m2
07:59 39.2 °F 32.6 °F 30.11 in Calm   2.0 mph 77% 0.00 in 7.00 W/m2
08:05 39.0 °F 32.7 °F 30.10 in Calm     78% 0.00 in 14.00 W/m2
08:09 39.0 °F 32.7 °F 30.10 in Calm     78% 0.00 in 18.00 W/m2
08:15 39.0 °F 32.7 °F 30.10 in Calm     78% 0.00 in 23.00 W/m2
08:19 39.0 °F 32.7 °F 30.10 in Calm     78% 0.00 in 30.00 W/m2
08:25 39.1 °F 32.8 °F 30.10 in Calm   2.0 mph 78% 0.00 in 37.00 W/m2
08:29 39.0 °F 32.7 °F 30.10 in Calm     78% 0.00 in 42.00 W/m2
08:35 38.9 °F 32.6 °F 30.10 in Calm     78% 0.00 in 54.00 W/m2
08:39 38.9 °F 33.0 °F 30.09 in Calm     79% 0.00 in 60.00 W/m2
08:44 38.9 °F 33.0 °F 30.09 in Calm     79% 0.00 in 60.00 W/m2
08:50 38.8 °F 32.9 °F 30.09 in Calm     79% 0.00 in 63.00 W/m2
08:54 38.8 °F 32.9 °F 30.09 in Calm     79% 0.00 in 69.00 W/m2
09:00 38.9 °F 33.0 °F 30.09 in Calm     79% 0.00 in 74.00 W/m2
09:05 39.1 °F 33.1 °F 30.09 in Calm   1.0 mph 79% 0.00 in 76.00 W/m2
09:10 39.3 °F 33.3 °F 30.08 in Calm     79% 0.00 in 83.00 W/m2
09:15 39.5 °F 33.2 °F 30.08 in Calm     78% 0.00 in 84.00 W/m2
09:20 39.8 °F 33.5 °F 30.07 in ESE 1.0 mph 2.0 mph 78% 0.00 in 88.00 W/m2
09:25 39.9 °F 33.3 °F 30.07 in ESE 2.0 mph 2.0 mph 77% 0.00 in 95.00 W/m2
09:30 40.0 °F 33.4 °F 30.06 in Calm   2.0 mph 77% 0.00 in 98.00 W/m2
09:34 40.2 °F 33.6 °F 30.06 in Calm   2.0 mph 77% 0.00 in 98.00 W/m2
09:39 40.3 °F 33.7 °F 30.06 in Calm     77% 0.00 in 109.00 W/m2
09:44 40.4 °F 33.8 °F 30.06 in Calm     77% 0.00 in 113.00 W/m2
09:49 40.7 °F 34.1 °F 30.06 in ESE 1.0 mph 3.0 mph 77% 0.00 in 120.00 W/m2
09:54 40.8 °F 34.2 °F 30.06 in Calm   3.0 mph 77% 0.00 in 139.00 W/m2
10:00 40.9 °F 33.9 °F 30.05 in Calm     76% 0.00 in 144.00 W/m2
10:05 40.9 °F 33.9 °F 30.05 in Calm     76% 0.00 in 139.00 W/m2
10:10 41.1 °F 34.1 °F 30.05 in Calm     76% 0.00 in 137.00 W/m2
10:14 41.2 °F 34.2 °F 30.06 in Calm     76% 0.00 in 139.00 W/m2
10:19 41.3 °F 34.0 °F 30.05 in Calm     75% 0.00 in 155.00 W/m2
10:24 41.4 °F 33.8 °F 30.05 in Calm     74% 0.00 in 155.00 W/m2
10:29 41.6 °F 34.3 °F 30.05 in Calm     75% 0.00 in 149.00 W/m2
10:34 41.8 °F 34.5 °F 30.05 in Calm     75% 0.00 in 151.00 W/m2
10:39 42.0 °F 34.7 °F 30.05 in Calm     75% 0.00 in 160.00 W/m2
10:45 42.1 °F 34.8 °F 30.06 in Calm     75% 0.00 in 172.00 W/m2
10:49 42.0 °F 34.7 °F 30.06 in Calm   3.0 mph 75% 0.00 in 178.00 W/m2
10:54 41.6 °F 33.9 °F 30.07 in Calm   2.0 mph 74% 0.00 in 190.00 W/m2
10:59 41.1 °F 33.5 °F 30.07 in ESE 3.0 mph 4.0 mph 74% 0.00 in 190.00 W/m2
11:05 40.6 °F 33.3 °F 30.06 in ESE 3.0 mph 4.0 mph 75% 0.00 in 209.00 W/m2
11:10 40.6 °F 33.3 °F 30.06 in ESE 2.0 mph 5.0 mph 75% 0.00 in 221.00 W/m2
11:14 40.6 °F 33.3 °F 30.06 in ESE 2.0 mph 5.0 mph 75% 0.00 in 232.00 W/m2
11:19 40.6 °F 33.3 °F 30.05 in ESE 4.0 mph 4.0 mph 75% 0.00 in 234.00 W/m2
11:25 40.7 °F 33.4 °F 30.05 in East 1.0 mph 3.0 mph 75% 0.00 in 234.00 W/m2
11:29 40.8 °F 33.5 °F 30.04 in Calm   3.0 mph 75% 0.00 in 229.00 W/m2
11:34 40.9 °F 33.6 °F 30.03 in Calm     75% 0.00 in 213.00 W/m2
11:39 41.1 °F 33.5 °F 30.03 in Calm     74% 0.00 in 213.00 W/m2
11:44 41.1 °F 33.5 °F 30.02 in Calm     74% 0.00 in 199.00 W/m2
11:49 41.2 °F 33.5 °F 30.02 in East 2.0 mph 2.0 mph 74% 0.00 in 207.00 W/m2
11:54 41.2 °F 33.5 °F 30.02 in Calm   3.0 mph 74% 0.00 in 206.00 W/m2
12:00 41.2 °F 33.5 °F 30.02 in East 1.0 mph 2.0 mph 74% 0.00 in 202.00 W/m2
12:04 41.3 °F 33.3 °F 30.01 in Calm   2.0 mph 73% 0.00 in 193.00 W/m2
12:09 41.3 °F 33.3 °F 30.01 in East 3.0 mph 3.0 mph 73% 0.00 in 193.00 W/m2
12:15 41.5 °F 33.5 °F 30.00 in Calm   2.0 mph 73% 0.00 in 188.00 W/m2
12:20 41.8 °F 33.8 °F 29.99 in Calm     73% 0.00 in 195.00 W/m2
12:25 42.0 °F 34.0 °F 29.99 in Calm     73% 0.00 in 188.00 W/m2
12:30 42.2 °F 34.2 °F 29.99 in Calm     73% 0.00 in 186.00 W/m2
12:35 42.5 °F 34.1 °F 29.98 in Calm   1.0 mph 72% 0.00 in 190.00 W/m2
12:40 42.7 °F 34.0 °F 29.98 in Calm     71% 0.00 in 199.00 W/m2
12:45 42.7 °F 34.0 °F 29.97 in Calm     71% 0.00 in 195.00 W/m2
12:49 42.7 °F 34.0 °F 29.97 in Calm     71% 0.00 in 202.00 W/m2
12:55 42.8 °F 34.1 °F 29.97 in Calm     71% 0.00 in 193.00 W/m2
13:00 43.1 °F 34.4 °F 29.97 in East 1.0 mph 1.0 mph 71% 0.00 in 193.00 W/m2
13:05 43.2 °F 34.5 °F 29.96 in Calm   2.0 mph 71% 0.00 in 204.00 W/m2
13:10 43.2 °F 34.1 °F 29.96 in Calm     70% 0.00 in 197.00 W/m2
13:14 43.3 °F 34.2 °F 29.96 in Calm     70% 0.00 in 202.00 W/m2
13:20 43.4 °F 34.6 °F 29.96 in Calm     71% 0.00 in 192.00 W/m2
13:25 43.5 °F 34.4 °F 29.96 in Calm     70% 0.00 in 190.00 W/m2
13:29 43.6 °F 34.5 °F 29.97 in East 3.0 mph 5.0 mph 70% 0.00 in 179.00 W/m2
13:34 43.5 °F 34.0 °F 29.97 in Calm   5.0 mph 69% 0.00 in 178.00 W/m2
13:39 43.4 °F 34.3 °F 29.97 in Calm   5.0 mph 70% 0.00 in 178.00 W/m2
13:45 43.3 °F 34.5 °F 29.97 in Calm     71% 0.00 in 183.00 W/m2
13:49 43.2 °F 34.8 °F 29.97 in Calm     72% 0.00 in 186.00 W/m2
13:54 42.9 °F 34.5 °F 29.97 in Calm     72% 0.00 in 179.00 W/m2
13:59 42.6 °F 34.6 °F 29.97 in Calm     73% 0.00 in 179.00 W/m2
14:04 42.4 °F 34.4 °F 29.97 in Calm     73% 0.00 in 172.00 W/m2
14:09 42.3 °F 34.3 °F 29.96 in Calm   1.0 mph 73% 0.00 in 176.00 W/m2
14:15 42.3 °F 34.3 °F 29.95 in Calm     73% 0.00 in 181.00 W/m2
14:19 42.3 °F 34.3 °F 29.94 in Calm     73% 0.00 in 181.00 W/m2
14:24 42.5 °F 34.5 °F 29.93 in Calm     73% 0.00 in 190.00 W/m2
14:29 42.8 °F 34.8 °F 29.92 in Calm     73% 0.00 in 199.00 W/m2
14:35 43.3 °F 35.2 °F 29.91 in Calm     73% 0.00 in 209.00 W/m2
14:40 43.8 °F 35.0 °F 29.90 in Calm   1.0 mph 71% 0.00 in 211.00 W/m2
14:45 44.2 °F 34.3 °F 29.89 in South 4.0 mph 8.0 mph 68% 0.00 in 190.00 W/m2
14:49 45.3 °F 33.5 °F 29.88 in ESE 2.0 mph 10.0 mph 63% 0.00 in 192.00 W/m2
14:55 47.2 °F 30.5 °F 29.87 in ESE 11.0 mph 17.0 mph 52% 0.00 in 172.00 W/m2
15:00 48.3 °F 30.0 °F 29.88 in SSE 3.0 mph 19.0 mph 49% 0.00 in 156.00 W/m2
15:04 48.6 °F 29.8 °F 29.87 in SSE 4.0 mph 11.0 mph 48% 0.00 in 155.00 W/m2
15:09 49.0 °F 29.1 °F 29.87 in ESE 7.0 mph 13.0 mph 46% 0.00 in 142.00 W/m2
15:14 49.5 °F 28.5 °F 29.87 in SE 2.0 mph 14.0 mph 44% 0.00 in 123.00 W/m2
15:19 49.6 °F 28.6 °F 29.86 in SSE 12.0 mph 22.0 mph 44% 0.00 in 121.00 W/m2
15:25 49.7 °F 28.1 °F 29.86 in SE 7.0 mph 24.0 mph 43% 0.00 in 128.00 W/m2
15:29 49.9 °F 28.3 °F 29.87 in SSE 14.0 mph 24.0 mph 43% 0.00 in 116.00 W/m2
15:35 50.0 °F 28.4 °F 29.89 in WSW 1.0 mph 18.0 mph 43% 0.00 in 113.00 W/m2
15:39 49.8 °F 32.4 °F 29.90 in WSW 2.0 mph 5.0 mph 51% 0.00 in 97.00 W/m2
15:44 48.4 °F 32.5 °F 29.91 in Calm   4.0 mph 54% 0.00 in 84.00 W/m2
15:49 46.7 °F 33.1 °F 29.92 in North 1.0 mph 3.0 mph 59% 0.00 in 79.00 W/m2
15:54 44.8 °F 33.0 °F 29.92 in NNE 1.0 mph 3.0 mph 63% 0.00 in 72.00 W/m2
16:00 41.7 °F 31.6 °F 29.92 in ENE 2.0 mph 4.0 mph 67% 0.00 in 56.00 W/m2
16:05 40.2 °F 31.6 °F 29.91 in ENE 3.0 mph 4.0 mph 71% 0.00 in 51.00 W/m2
16:10 40.0 °F 32.4 °F 29.90 in ENE 3.0 mph 7.0 mph 74% 0.00 in 47.00 W/m2
16:14 40.3 °F 32.7 °F 29.89 in Calm   7.0 mph 74% 0.00 in 44.00 W/m2
16:19 41.0 °F 32.3 °F 29.88 in ESE 2.0 mph 7.0 mph 71% 0.00 in 37.00 W/m2
16:24 42.1 °F 31.6 °F 29.87 in ESE 3.0 mph 6.0 mph 66% 0.00 in 32.00 W/m2
16:29 44.5 °F 31.1 °F 29.87 in SSE 10.0 mph 13.0 mph 59% 0.00 in 33.00 W/m2
16:34 46.0 °F 30.3 °F 29.87 in SSE 7.0 mph 11.0 mph 54% 0.00 in 32.00 W/m2
16:39 46.6 °F 29.9 °F 29.86 in SSW 6.0 mph 10.0 mph 52% 0.00 in 30.00 W/m2
16:45 46.6 °F 29.9 °F 29.85 in WSW 2.0 mph 9.0 mph 52% 0.00 in 26.00 W/m2
16:49 46.6 °F 29.9 °F 29.85 in SSW 5.0 mph 8.0 mph 52% 0.00 in 23.00 W/m2
16:55 46.3 °F 31.0 °F 29.85 in NNW 3.0 mph 7.0 mph 55% 0.00 in 21.00 W/m2
16:59 45.7 °F 31.4 °F 29.85 in Calm   5.0 mph 57% 0.00 in 21.00 W/m2
17:04 45.1 °F 31.6 °F 29.85 in Calm   3.0 mph 59% 0.00 in 16.00 W/m2
17:10 44.3 °F 31.3 °F 29.84 in Calm     60% 0.00 in 14.00 W/m2
17:15 43.8 °F 31.2 °F 29.84 in Calm   2.0 mph 61% 0.00 in 16.00 W/m2
17:19 43.9 °F 30.1 °F 29.83 in Calm   7.0 mph 58% 0.00 in 19.00 W/m2
17:24 44.6 °F 29.4 °F 29.83 in South 12.0 mph 13.0 mph 55% 0.00 in 16.00 W/m2
17:29 45.6 °F 29.5 °F 29.83 in SSE 6.0 mph 13.0 mph 53% 0.00 in 14.00 W/m2
17:35 46.6 °F 29.5 °F 29.83 in Calm   10.0 mph 51% 0.00 in 12.00 W/m2
17:40 46.8 °F 29.2 °F 29.82 in South 6.0 mph 10.0 mph 50% 0.00 in 11.00 W/m2
17:44 47.0 °F 28.9 °F 29.82 in SSE 8.0 mph 11.0 mph 49% 0.00 in 5.00 W/m2
17:50 47.5 °F 28.8 °F 29.82 in SSE 4.0 mph 12.0 mph 48% 0.00 in 0.00 W/m2
17:54 47.5 °F 28.8 °F 29.82 in ESE 7.0 mph 9.0 mph 48% 0.00 in 0.00 W/m2
18:00 47.7 °F 28.5 °F 29.82 in Calm   11.0 mph 47% 0.00 in 0.00 W/m2
18:05 47.7 °F 29.0 °F 29.82 in South 5.0 mph 9.0 mph 48% 0.00 in 0.00 W/m2
18:09 47.6 °F 28.9 °F 29.82 in South 1.0 mph 12.0 mph 48% 0.00 in 0.00 W/m2
18:14 47.3 °F 29.1 °F 29.82 in South 5.0 mph 5.0 mph 49% 0.00 in 0.00 W/m2
18:20 47.0 °F 29.8 °F 29.82 in Calm   10.0 mph 51% 0.00 in 0.00 W/m2
18:25 46.6 °F 29.0 °F 29.81 in South 3.0 mph 10.0 mph 50% 0.00 in 0.00 W/m2
18:30 46.9 °F 28.8 °F 29.81 in Calm   9.0 mph 49% 0.00 in 0.00 W/m2
18:34 46.9 °F 28.8 °F 29.80 in South 5.0 mph 7.0 mph 49% 0.00 in 0.00 W/m2
18:39 47.6 °F 28.4 °F 29.80 in ESE 3.0 mph 8.0 mph 47% 0.00 in 0.00 W/m2
18:44 48.1 °F 28.3 °F 29.79 in SE 3.0 mph 11.0 mph 46% 0.00 in 0.00 W/m2
18:50 48.6 °F 28.2 °F 29.79 in SE 3.0 mph 12.0 mph 45% 0.00 in 0.00 W/m2
18:55 48.9 °F 28.0 °F 29.80 in SSW 5.0 mph 16.0 mph 44% 0.00 in 0.00 W/m2
18:59 48.8 °F 27.9 °F 29.79 in SE 9.0 mph 16.0 mph 44% 0.00 in 0.00 W/m2
19:04 48.7 °F 27.8 °F 29.79 in Calm   15.0 mph 44% 0.00 in 0.00 W/m2
19:09 48.8 °F 27.9 °F 29.78 in SSE 4.0 mph 13.0 mph 44% 0.00 in 0.00 W/m2
19:14 49.1 °F 27.6 °F 29.77 in South 2.0 mph 15.0 mph 43% 0.00 in 0.00 W/m2
19:20 49.3 °F 27.8 °F 29.76 in SSE 11.0 mph 18.0 mph 43% 0.00 in 0.00 W/m2
19:24 49.5 °F 27.4 °F 29.76 in SE 21.0 mph 21.0 mph 42% 0.00 in 0.00 W/m2
19:29 49.6 °F 27.5 °F 29.75 in ESE 15.0 mph 21.0 mph 42% 0.00 in 0.00 W/m2
19:34 49.5 °F 27.4 °F 29.75 in SE 4.0 mph 17.0 mph 42% 0.00 in 0.00 W/m2
19:39 49.4 °F 27.3 °F 29.75 in SSE 12.0 mph 20.0 mph 42% 0.00 in 0.00 W/m2
19:44 49.4 °F 27.3 °F 29.74 in SE 6.0 mph 20.0 mph 42% 0.00 in 0.00 W/m2
19:49 49.3 °F 27.8 °F 29.74 in ESE 12.0 mph 17.0 mph 43% 0.00 in 0.00 W/m2
19:55 49.0 °F 27.5 °F 29.74 in ESE 10.0 mph 18.0 mph 43% 0.00 in 0.00 W/m2
20:00 48.9 °F 27.4 °F 29.73 in SE 12.0 mph 12.0 mph 43% 0.00 in 0.00 W/m2
20:04 48.8 °F 27.3 °F 29.73 in SSE 4.0 mph 12.0 mph 43% 0.00 in 0.00 W/m2
20:09 48.7 °F 27.2 °F 29.73 in ESE 13.0 mph 13.0 mph 43% 0.00 in 0.00 W/m2
20:15 48.8 °F 26.7 °F 29.73 in ESE 9.0 mph 17.0 mph 42% 0.00 in 0.00 W/m2
20:20 48.8 °F 27.3 °F 29.72 in SSE 11.0 mph 16.0 mph 43% 0.00 in 0.00 W/m2
20:24 48.6 °F 27.1 °F 29.72 in SSE 10.0 mph 15.0 mph 43% 0.00 in 0.00 W/m2
20:29 48.7 °F 27.2 °F 29.72 in East 11.0 mph 14.0 mph 43% 0.00 in 0.00 W/m2
Chelsea Cove, Bountiful, UT
Compliments of Weather Underground - 1.25 mb